Brevoort Island, Canada
Current Conditions -  °F | °C
As of 2:00 AM on Friday 19 Dec 2014 (Local Time) from CYFB Reporting Station
Ice Pellets Ice Pellets  
Wind Chill: -37°   Ceiling: Unl
Heat Index: -15°   Visibility: 15mi
Dew Point: -22°   Wind: 13mph
Humidity: 70%   Direction: 300°WNW
Pressure: 30.05"   Gusts: NA
Location:  63.5°N, 64.33°W
Report Text: CYFB 190600Z 30011KT 15SM IC SKC M26/M30 A3005 RMK SLP181
Loading
Personal Weather Stations






























Interactive Weather Map New forecast layout! Learn more

10-Day Weather Forecast

Advertisements
Track Severe Weather on mobile